createdAt,value
2019-02-11T00:00:03.380Z,3.07
2019-02-11T00:02:30.969Z,5.90
2019-02-11T00:04:58.549Z,3.10
2019-02-11T00:07:26.157Z,5.33
2019-02-11T00:09:53.746Z,5.53
2019-02-11T00:12:22.086Z,5.70
2019-02-11T00:14:49.698Z,5.80
2019-02-11T00:17:17.282Z,5.23
2019-02-11T00:19:44.856Z,4.77
2019-02-11T00:22:12.473Z,6.23
2019-02-11T00:24:40.814Z,6.97
2019-02-11T00:27:08.389Z,6.80
2019-02-11T00:29:35.991Z,4.07
2019-02-11T00:32:03.570Z,5.20
2019-02-11T00:34:31.144Z,4.50
2019-02-11T00:36:58.752Z,5.43
2019-02-11T00:39:27.087Z,3.63
2019-02-11T00:41:54.676Z,5.50
2019-02-11T00:44:22.310Z,8.57
2019-02-11T00:46:49.885Z,5.83
2019-02-11T00:49:17.471Z,3.80
2019-02-11T00:51:45.084Z,6.80
2019-02-11T00:54:12.659Z,6.53
2019-02-11T00:56:40.229Z,4.10
2019-02-11T00:59:07.842Z,3.97
2019-02-11T01:01:35.431Z,3.27
2019-02-11T01:04:03.014Z,4.87
2019-02-11T01:06:30.655Z,5.03
2019-02-11T01:08:58.225Z,4.70
2019-02-11T01:11:25.801Z,5.77
2019-02-11T01:13:53.414Z,3.73
2019-02-11T01:16:20.986Z,6.97
2019-02-11T01:18:48.567Z,9.33
2019-02-11T01:21:16.172Z,7.20
2019-02-11T01:23:43.749Z,4.33
2019-02-11T01:26:11.324Z,10.10
2019-02-11T01:28:38.936Z,5.83
2019-02-11T01:31:06.507Z,6.63
2019-02-11T01:33:34.099Z,5.67
2019-02-11T01:36:02.471Z,4.97
2019-02-11T01:38:31.414Z,7.28
2019-02-11T01:40:58.995Z,4.60
2019-02-11T01:43:26.865Z,5.97
2019-02-11T01:45:54.448Z,6.70
2019-02-11T01:48:22.795Z,6.10
2019-02-11T01:50:50.449Z,5.00
2019-02-11T01:53:18.030Z,7.67
2019-02-11T01:55:45.608Z,10.50
2019-02-11T01:58:13.226Z,5.70
2019-02-11T02:00:40.800Z,6.33
2019-02-11T02:03:08.377Z,5.53
2019-02-11T02:05:35.995Z,7.90
2019-02-11T02:08:03.575Z,5.67
2019-02-11T02:10:31.150Z,6.13
2019-02-11T02:12:59.140Z,4.73
2019-02-11T02:15:26.720Z,6.73
2019-02-11T02:17:55.079Z,6.57
2019-02-11T02:20:22.754Z,5.77
2019-02-11T02:22:50.347Z,4.20
2019-02-11T02:25:17.917Z,7.33
2019-02-11T02:27:45.534Z,6.77
2019-02-11T02:30:13.119Z,6.17
2019-02-11T02:32:41.463Z,7.17
2019-02-11T02:35:09.539Z,5.37
2019-02-11T02:37:37.123Z,8.68
2019-02-11T02:40:05.469Z,7.27
2019-02-11T02:42:33.073Z,7.77
2019-02-11T02:45:01.422Z,7.43
2019-02-11T02:47:28.990Z,5.83
2019-02-11T02:49:56.600Z,6.67
2019-02-11T02:52:24.170Z,8.17
2019-02-11T02:54:51.747Z,7.17
2019-02-11T02:57:19.391Z,9.03
2019-02-11T02:59:46.956Z,8.17
2019-02-11T03:02:14.527Z,7.97
2019-02-11T03:04:42.143Z,5.53
2019-02-11T03:07:10.477Z,5.43
2019-02-11T03:09:38.056Z,5.57
2019-02-11T03:12:05.669Z,7.20
2019-02-11T03:14:33.238Z,7.43
2019-02-11T03:17:00.818Z,5.80
2019-02-11T03:19:28.706Z,8.33
2019-02-11T03:21:56.278Z,6.13
2019-02-11T03:24:23.864Z,6.20
2019-02-11T03:26:52.234Z,8.37
2019-02-11T03:29:20.586Z,8.60
2019-02-11T03:31:48.157Z,8.53
2019-02-11T03:34:15.756Z,8.13
2019-02-11T03:36:43.331Z,10.30
2019-02-11T03:39:10.912Z,7.83
2019-02-11T03:41:38.533Z,8.93
2019-02-11T03:44:14.787Z,4.87
2019-02-11T03:46:34.722Z,9.20
2019-02-11T03:49:02.336Z,7.00
2019-02-11T03:51:30.685Z,8.53
2019-02-11T03:53:58.272Z,15.37
2019-02-11T03:56:26.650Z,9.60
2019-02-11T03:58:54.216Z,8.90
2019-02-11T04:01:22.561Z,5.47
2019-02-11T04:03:50.168Z,8.20
2019-02-11T04:06:18.507Z,6.60
2019-02-11T04:08:46.076Z,6.40
2019-02-11T04:11:13.695Z,5.67
2019-02-11T04:13:41.276Z,7.40
2019-02-11T04:16:08.841Z,7.00
2019-02-11T04:18:36.449Z,8.67
2019-02-11T04:21:04.789Z,5.00
2019-02-11T04:23:32.372Z,6.93
2019-02-11T04:25:59.988Z,7.40
2019-02-11T04:28:27.976Z,7.87
2019-02-11T04:30:55.559Z,5.67
2019-02-11T04:33:23.171Z,8.17
2019-02-11T04:35:50.742Z,7.57
2019-02-11T04:38:18.320Z,7.50
2019-02-11T04:40:45.923Z,4.43
2019-02-11T04:43:14.266Z,8.63
2019-02-11T04:45:41.834Z,5.43
2019-02-11T04:48:09.900Z,8.47
2019-02-11T04:50:37.475Z,7.90
2019-02-11T04:53:05.050Z,5.87
2019-02-11T04:55:32.659Z,9.53
2019-02-11T04:58:00.232Z,7.50
2019-02-11T05:00:27.808Z,6.87
2019-02-11T05:02:55.413Z,8.57
2019-02-11T05:05:23.753Z,5.23
2019-02-11T05:07:51.329Z,7.63
2019-02-11T05:10:18.964Z,7.80
2019-02-11T05:12:46.568Z,9.00
2019-02-11T05:15:14.149Z,8.33
2019-02-11T05:17:42.514Z,7.37
2019-02-11T05:20:10.870Z,5.53
2019-02-11T05:22:38.523Z,5.77
2019-02-11T05:25:06.832Z,7.33
2019-02-11T05:27:34.420Z,10.83
2019-02-11T05:30:02.053Z,7.13
2019-02-11T05:32:29.676Z,8.17
2019-02-11T05:34:57.246Z,8.23
2019-02-11T05:37:24.837Z,10.20
2019-02-11T05:39:52.438Z,6.13
2019-02-11T05:42:20.006Z,6.63
2019-02-11T05:44:54.028Z,8.00
2019-02-11T05:47:15.196Z,10.20
2019-02-11T05:49:43.538Z,7.30
2019-02-11T05:52:11.117Z,10.63
2019-02-11T05:54:38.742Z,7.13
2019-02-11T05:57:06.326Z,11.13
2019-02-11T05:59:33.913Z,12.40
2019-02-11T06:02:01.524Z,15.03
2019-02-11T06:04:29.100Z,8.20
2019-02-11T06:06:56.678Z,7.00
2019-02-11T06:09:24.301Z,4.30
2019-02-11T06:11:51.872Z,7.13
2019-02-11T06:14:19.444Z,5.90
2019-02-11T06:16:47.062Z,2.77
2019-02-11T06:19:15.403Z,5.97
2019-02-11T06:21:42.979Z,4.60
2019-02-11T06:24:10.595Z,5.67
2019-02-11T06:26:38.172Z,7.83
2019-02-11T06:29:05.758Z,6.50
2019-02-11T06:31:33.380Z,3.97
2019-02-11T06:34:00.964Z,8.87
2019-02-11T06:36:28.536Z,9.90
2019-02-11T06:38:56.517Z,7.70
2019-02-11T06:41:24.091Z,4.70
2019-02-11T06:43:52.434Z,11.40
2019-02-11T06:46:20.323Z,7.93
2019-02-11T06:48:47.908Z,6.60
2019-02-11T06:51:16.545Z,6.27
2019-02-11T06:53:44.148Z,6.63
2019-02-11T06:56:11.720Z,5.80
2019-02-11T06:58:40.063Z,6.90
2019-02-11T07:01:07.688Z,9.90
2019-02-11T07:03:35.278Z,7.47
2019-02-11T07:06:02.861Z,4.03
2019-02-11T07:08:30.475Z,7.80
2019-02-11T07:10:58.052Z,9.33
2019-02-11T07:13:25.641Z,6.10
2019-02-11T07:15:53.244Z,7.67
2019-02-11T07:18:20.826Z,7.60
2019-02-11T07:20:48.405Z,10.40
2019-02-11T07:23:16.069Z,7.07
2019-02-11T07:25:43.609Z,7.97
2019-02-11T07:28:11.183Z,4.27
2019-02-11T07:30:38.797Z,10.03
2019-02-11T07:33:07.145Z,8.40
2019-02-11T07:35:34.721Z,7.53
2019-02-11T07:38:02.338Z,14.63
2019-02-11T07:40:29.942Z,13.10
2019-02-11T07:43:03.472Z,12.20
2019-02-11T07:45:39.740Z,11.30
2019-02-11T07:48:08.082Z,9.83
2019-02-11T07:50:35.658Z,7.57
2019-02-11T07:53:03.349Z,11.17
2019-02-11T07:55:30.925Z,8.00
2019-02-11T07:57:58.504Z,10.87
2019-02-11T08:00:26.410Z,7.63
2019-02-11T08:02:53.997Z,7.50
2019-02-11T08:05:22.345Z,10.80
2019-02-11T08:07:50.978Z,9.80
2019-02-11T08:10:18.561Z,15.13
2019-02-11T08:12:46.140Z,12.27
2019-02-11T08:15:13.770Z,14.37
2019-02-11T08:17:41.347Z,9.47
2019-02-11T08:20:08.923Z,7.97
2019-02-11T08:22:37.721Z,8.60
2019-02-11T08:25:05.311Z,13.23
2019-02-11T08:27:33.656Z,9.70
2019-02-11T08:30:01.751Z,12.00
2019-02-11T08:32:29.331Z,12.57
2019-02-11T08:34:57.674Z,13.30
2019-02-11T08:37:26.170Z,8.93
2019-02-11T08:39:53.764Z,9.67
2019-02-11T08:42:22.116Z,15.33
2019-02-11T08:44:49.772Z,11.48
2019-02-11T08:47:17.362Z,8.50
2019-02-11T08:49:45.724Z,8.97
2019-02-11T08:52:13.355Z,13.83
2019-02-11T08:54:40.934Z,11.10
2019-02-11T08:57:08.518Z,11.77
2019-02-11T08:59:36.201Z,13.77
2019-02-11T09:02:03.779Z,13.03
2019-02-11T09:04:31.671Z,7.77
2019-02-11T09:06:59.346Z,10.17
2019-02-11T09:09:27.306Z,10.87
2019-02-11T09:11:54.888Z,9.05
2019-02-11T09:14:22.523Z,12.37
2019-02-11T09:16:50.112Z,13.90
2019-02-11T09:19:17.695Z,11.90
2019-02-11T09:21:46.086Z,9.03
2019-02-11T09:24:13.677Z,13.20
2019-02-11T09:26:41.249Z,8.77
2019-02-11T09:29:09.146Z,8.90
2019-02-11T09:31:37.298Z,12.00
2019-02-11T09:34:04.883Z,8.63
2019-02-11T09:36:32.516Z,9.47
2019-02-11T09:39:00.104Z,11.00
2019-02-11T09:41:27.692Z,16.97
2019-02-11T09:43:56.078Z,11.13
2019-02-11T09:46:24.423Z,12.47
2019-02-11T09:48:51.999Z,9.23
2019-02-11T09:51:19.659Z,13.30
2019-02-11T09:53:47.230Z,7.93
2019-02-11T09:56:14.815Z,11.23
2019-02-11T09:58:42.502Z,8.73
2019-02-11T10:01:10.087Z,10.23
2019-02-11T10:03:37.665Z,9.87
2019-02-11T10:06:05.285Z,7.10
2019-02-11T10:08:32.859Z,14.47
2019-02-11T10:11:00.445Z,9.57
2019-02-11T10:13:28.096Z,7.73
2019-02-11T10:15:55.679Z,10.97
2019-02-11T10:18:23.251Z,15.90
2019-02-11T10:20:50.885Z,12.23
2019-02-11T10:23:18.468Z,11.63
2019-02-11T10:25:46.047Z,11.70
2019-02-11T10:28:15.245Z,8.33
2019-02-11T10:30:43.593Z,16.13
2019-02-11T10:33:11.169Z,15.00
2019-02-11T10:35:42.251Z,13.20
2019-02-11T10:38:06.913Z,10.73
2019-02-11T10:40:34.488Z,12.70
2019-02-11T10:43:02.881Z,7.90
2019-02-11T10:45:36.451Z,11.33
2019-02-11T10:47:58.043Z,9.97
2019-02-11T10:50:26.133Z,9.80
2019-02-11T10:52:53.710Z,10.40
2019-02-11T10:55:21.317Z,9.77
2019-02-11T10:57:49.689Z,9.00
2019-02-11T11:00:18.501Z,7.33
2019-02-11T11:02:46.082Z,8.33
2019-02-11T11:05:13.773Z,8.13
2019-02-11T11:07:42.117Z,14.17
2019-02-11T11:10:30.925Z,12.00
2019-02-11T11:12:59.268Z,11.13
2019-02-11T11:15:26.846Z,7.37
2019-02-11T11:17:54.901Z,8.90
2019-02-11T11:20:22.476Z,11.90
2019-02-11T11:22:50.051Z,10.57
2019-02-11T11:25:18.441Z,7.50
2019-02-11T11:27:46.786Z,9.23
2019-02-11T11:30:17.056Z,7.67
2019-02-11T11:32:44.687Z,9.37
2019-02-11T11:35:12.267Z,12.17
2019-02-11T11:37:39.838Z,7.27
2019-02-11T11:40:10.268Z,11.80
2019-02-11T11:42:37.842Z,8.80
2019-02-11T11:45:05.429Z,12.03
2019-02-11T11:47:34.593Z,4.47
2019-02-11T11:50:00.626Z,9.33
2019-02-11T11:52:28.196Z,8.87
2019-02-11T11:54:55.821Z,8.60
2019-02-11T11:57:23.404Z,11.20
2019-02-11T11:59:50.977Z,8.20
2019-02-11T12:02:18.607Z,15.53
2019-02-11T12:04:46.959Z,10.87
2019-02-11T12:07:14.534Z,6.63
2019-02-11T12:09:43.815Z,8.88
2019-02-11T12:12:13.062Z,12.15
2019-02-11T12:14:37.678Z,7.50
2019-02-11T12:17:05.769Z,10.37
2019-02-11T12:19:33.341Z,9.73
2019-02-11T12:22:00.925Z,9.83
2019-02-11T12:24:28.558Z,6.30
2019-02-11T12:26:56.158Z,9.63
2019-02-11T12:29:23.734Z,9.83
2019-02-11T12:31:52.169Z,8.27
2019-02-11T12:34:19.755Z,11.43
2019-02-11T12:36:47.324Z,11.53
2019-02-11T12:39:15.007Z,11.97
2019-02-11T12:41:43.350Z,8.93
2019-02-11T12:44:10.920Z,6.53
2019-02-11T12:46:38.555Z,6.87
2019-02-11T12:49:06.142Z,5.93
2019-02-11T12:51:33.714Z,9.90
2019-02-11T12:54:02.791Z,10.27
2019-02-11T12:56:30.361Z,10.57
2019-02-11T12:58:57.957Z,11.73
2019-02-11T13:01:25.599Z,8.17
2019-02-11T13:03:53.195Z,10.43
2019-02-11T13:06:20.777Z,12.70
2019-02-11T13:08:48.804Z,11.13
2019-02-11T13:11:17.156Z,10.97
2019-02-11T13:13:44.737Z,10.40
2019-02-11T13:16:12.371Z,10.67
2019-02-11T13:18:40.286Z,10.50
2019-02-11T13:21:07.517Z,8.47
2019-02-11T13:23:35.181Z,4.90
2019-02-11T13:26:02.746Z,8.00
2019-02-11T13:28:30.314Z,8.73
2019-02-11T13:30:59.874Z,6.93
2019-02-11T13:33:27.949Z,4.20
2019-02-11T13:35:55.560Z,10.87
2019-02-11T13:38:23.159Z,8.33
2019-02-11T13:40:50.741Z,9.97
2019-02-11T13:43:18.314Z,4.97
2019-02-11T13:45:45.930Z,11.47
2019-02-11T13:48:13.525Z,6.53
2019-02-11T13:50:41.132Z,9.83
2019-02-11T13:53:09.795Z,7.00
2019-02-11T13:55:37.360Z,7.93
2019-02-11T13:58:04.953Z,8.17
2019-02-11T14:00:32.638Z,8.60
2019-02-11T14:03:00.211Z,8.57
2019-02-11T14:05:27.790Z,8.07
2019-02-11T14:07:55.414Z,6.20
2019-02-11T14:10:23.000Z,3.80
2019-02-11T14:12:50.580Z,6.87
2019-02-11T14:15:20.535Z,7.50
2019-02-11T14:17:45.774Z,7.83
2019-02-11T14:20:19.137Z,3.30
2019-02-11T14:22:47.591Z,6.93
2019-02-11T14:25:15.160Z,6.13
2019-02-11T14:27:42.742Z,8.37
2019-02-11T14:30:22.804Z,8.37
2019-02-11T14:32:50.336Z,5.27
2019-02-11T14:35:20.743Z,5.10
2019-02-11T14:37:48.827Z,16.20
2019-02-11T14:40:16.411Z,4.23
2019-02-11T14:42:44.747Z,6.10
2019-02-11T14:45:12.663Z,11.37
2019-02-11T14:47:44.084Z,4.83
2019-02-11T14:50:08.869Z,4.03
2019-02-11T14:52:36.550Z,4.70
2019-02-11T14:55:04.131Z,4.97
2019-02-11T14:57:32.475Z,6.93
2019-02-11T15:00:00.225Z,5.77
2019-02-11T15:02:27.715Z,6.57
2019-02-11T15:04:55.319Z,6.10
2019-02-11T15:07:22.981Z,4.70
2019-02-11T15:09:50.561Z,6.23
2019-02-11T15:12:18.142Z,5.90
2019-02-11T15:14:46.163Z,6.03
2019-02-11T15:17:13.701Z,5.70
2019-02-11T15:19:41.282Z,8.07
2019-02-11T15:22:09.681Z,8.40
2019-02-11T15:24:37.266Z,7.10
2019-02-11T15:27:04.848Z,8.83
2019-02-11T15:29:32.773Z,11.37
2019-02-11T15:32:00.349Z,10.43
2019-02-11T15:34:27.919Z,6.80
2019-02-11T15:36:55.575Z,5.30
2019-02-11T15:39:23.115Z,6.47
2019-02-11T15:41:50.692Z,7.37
2019-02-11T15:44:18.767Z,9.20
2019-02-11T15:46:46.346Z,4.97
2019-02-11T15:49:13.926Z,5.40
2019-02-11T15:51:41.998Z,6.70
2019-02-11T15:54:09.585Z,8.77
2019-02-11T15:56:37.159Z,7.60
2019-02-11T15:59:04.833Z,7.93
2019-02-11T16:01:32.380Z,6.33
2019-02-11T16:04:00.068Z,5.13
2019-02-11T16:06:27.986Z,3.30
2019-02-11T16:09:04.109Z,5.57
2019-02-11T16:11:23.913Z,7.37
2019-02-11T16:13:51.594Z,9.67
2019-02-11T16:16:19.168Z,16.43
2019-02-11T16:18:51.787Z,5.47
2019-02-11T16:21:15.147Z,5.80
2019-02-11T16:23:42.720Z,8.07
2019-02-11T16:26:10.309Z,8.80
2019-02-11T16:28:38.794Z,7.43
2019-02-11T16:31:06.395Z,6.15
2019-02-11T16:33:34.301Z,9.30
2019-02-11T16:36:01.937Z,6.50
2019-02-11T16:38:29.507Z,8.23
2019-02-11T16:40:57.095Z,8.97
2019-02-11T16:43:25.577Z,9.50
2019-02-11T16:45:53.220Z,8.53
2019-02-11T16:48:20.795Z,4.93
2019-02-11T16:50:48.846Z,7.00
2019-02-11T16:53:16.421Z,10.73
2019-02-11T16:55:44.007Z,8.13
2019-02-11T16:58:12.417Z,11.33
2019-02-11T17:00:40.762Z,9.73
2019-02-11T17:03:08.337Z,9.70
2019-02-11T17:05:36.011Z,6.07
2019-02-11T17:08:03.590Z,8.87
2019-02-11T17:10:31.977Z,13.27
2019-02-11T17:12:59.605Z,13.70
2019-02-11T17:15:27.185Z,15.57
2019-02-11T17:17:54.767Z,12.95
2019-02-11T17:20:22.399Z,11.67
2019-02-11T17:22:49.983Z,13.03
2019-02-11T17:25:17.566Z,15.07
2019-02-11T17:27:45.621Z,10.33
2019-02-11T17:30:16.397Z,8.47
2019-02-11T17:32:43.993Z,14.40
2019-02-11T17:35:11.642Z,8.07
2019-02-11T17:37:39.224Z,8.10
2019-02-11T17:40:11.814Z,13.80
2019-02-11T17:42:38.150Z,12.17
2019-02-11T17:45:05.734Z,15.80
2019-02-11T17:47:33.310Z,9.40
2019-02-11T17:50:00.960Z,5.90
2019-02-11T17:52:28.546Z,10.00
2019-02-11T17:54:56.122Z,9.17
2019-02-11T17:57:23.763Z,11.50
2019-02-11T17:59:51.337Z,9.60
2019-02-11T18:02:18.909Z,11.57
2019-02-11T18:04:46.927Z,10.98
2019-02-11T18:07:14.469Z,8.43
2019-02-11T18:09:42.814Z,9.17
2019-02-11T18:12:10.896Z,9.47
2019-02-11T18:14:38.481Z,6.17
2019-02-11T18:17:06.833Z,11.27
2019-02-11T18:19:34.519Z,8.27
2019-02-11T18:22:02.266Z,6.17
2019-02-11T18:24:29.840Z,8.17
2019-02-11T18:26:57.503Z,13.27
2019-02-11T18:29:25.085Z,9.60
2019-02-11T18:31:53.438Z,5.40
2019-02-11T18:34:21.056Z,6.33
2019-02-11T18:36:48.760Z,7.60
2019-02-11T18:39:16.338Z,7.27
2019-02-11T18:41:45.346Z,6.40
2019-02-11T18:44:13.691Z,6.20
2019-02-11T18:46:41.272Z,6.40
2019-02-11T18:49:09.742Z,6.17
2019-02-11T18:51:37.315Z,5.57
2019-02-11T18:54:04.895Z,7.27
2019-02-11T18:56:33.290Z,8.90
2019-02-11T18:59:00.860Z,6.47
2019-02-11T19:01:28.439Z,7.60
2019-02-11T19:03:56.343Z,5.53
2019-02-11T19:06:23.941Z,5.93
2019-02-11T19:08:51.535Z,8.03
2019-02-11T19:11:19.193Z,6.90
2019-02-11T19:13:46.779Z,5.03
2019-02-11T19:16:14.350Z,6.57
2019-02-11T19:18:42.349Z,10.07
2019-02-11T19:21:10.697Z,9.40
2019-02-11T19:23:38.290Z,8.90
2019-02-11T19:26:06.682Z,8.00
2019-02-11T19:28:34.260Z,7.57
2019-02-11T19:31:01.877Z,10.23
2019-02-11T19:33:30.072Z,9.63
2019-02-11T19:35:57.617Z,7.47
2019-02-11T19:38:25.965Z,7.50
2019-02-11T19:40:54.107Z,6.20
2019-02-11T19:43:23.691Z,6.93
2019-02-11T19:45:49.860Z,5.57
2019-02-11T19:48:17.367Z,10.83
2019-02-11T19:50:45.734Z,9.67
2019-02-11T19:53:13.315Z,7.87
2019-02-11T19:55:42.108Z,13.77
2019-02-11T19:58:10.476Z,11.10
2019-02-11T20:00:38.079Z,9.40
2019-02-11T20:03:05.725Z,9.60
2019-02-11T20:05:33.301Z,8.03
2019-02-11T20:08:00.879Z,8.13
2019-02-11T20:10:28.508Z,9.13
2019-02-11T20:12:56.856Z,14.03
2019-02-11T20:15:29.961Z,26.67
2019-02-11T20:17:58.273Z,24.17
2019-02-11T20:20:25.854Z,16.57
2019-02-11T20:22:53.439Z,13.57
2019-02-11T20:25:21.820Z,11.60
2019-02-11T20:27:49.392Z,9.57
2019-02-11T20:30:26.119Z,11.47
2019-02-11T20:32:54.244Z,17.40
2019-02-11T20:35:21.826Z,18.77
2019-02-11T20:37:50.177Z,18.30
2019-02-11T20:40:26.632Z,15.33
2019-02-11T20:42:54.204Z,18.93
2019-02-11T20:45:21.787Z,16.20
2019-02-11T20:47:50.202Z,11.27
2019-02-11T20:50:17.815Z,9.40
2019-02-11T20:52:45.370Z,11.10
2019-02-11T20:55:13.015Z,11.93
2019-02-11T20:57:40.676Z,11.30
2019-02-11T21:00:11.168Z,11.77
2019-02-11T21:02:46.289Z,8.73
2019-02-11T21:05:13.915Z,11.07
2019-02-11T21:07:41.528Z,12.50
2019-02-11T21:10:14.868Z,12.73
2019-02-11T21:12:42.726Z,13.73
2019-02-11T21:15:15.813Z,12.52
2019-02-11T21:17:43.542Z,13.83
2019-02-11T21:20:17.445Z,13.60
2019-02-11T21:22:38.664Z,7.80
2019-02-11T21:25:07.134Z,11.77
2019-02-11T21:27:34.722Z,13.40
2019-02-11T21:30:02.337Z,10.93
2019-02-11T21:32:30.590Z,10.77
2019-02-11T21:34:58.900Z,15.95
2019-02-11T21:37:26.472Z,10.47
2019-02-11T21:39:54.121Z,13.20
2019-02-11T21:42:21.696Z,7.73
2019-02-11T21:44:49.324Z,10.47
2019-02-11T21:47:17.002Z,8.77
2019-02-11T21:49:44.580Z,14.57
2019-02-11T21:52:12.182Z,15.33
2019-02-11T21:54:43.320Z,11.13
2019-02-11T21:57:10.909Z,11.20
2019-02-11T21:59:38.492Z,14.40
2019-02-11T22:02:06.116Z,13.33
2019-02-11T22:04:33.703Z,13.87
2019-02-11T22:07:01.293Z,10.17
2019-02-11T22:09:28.950Z,8.67
2019-02-11T22:11:56.580Z,8.00
2019-02-11T22:14:25.513Z,13.87
2019-02-11T22:16:53.165Z,14.43
2019-02-11T22:19:20.739Z,9.63
2019-02-11T22:21:48.324Z,9.83
2019-02-11T22:24:16.966Z,13.50
2019-02-11T22:26:44.558Z,8.87
2019-02-11T22:29:12.139Z,13.20
2019-02-11T22:31:40.179Z,13.93
2019-02-11T22:34:07.763Z,9.93
2019-02-11T22:36:36.108Z,9.63
2019-02-11T22:39:03.730Z,11.33
2019-02-11T22:41:31.304Z,9.20
2019-02-11T22:43:58.883Z,9.87
2019-02-11T22:46:26.504Z,11.87
2019-02-11T22:48:54.090Z,11.13
2019-02-11T22:51:21.676Z,10.83
2019-02-11T22:53:49.319Z,13.83
2019-02-11T22:56:16.914Z,19.20
2019-02-11T22:58:44.517Z,20.43
2019-02-11T23:01:12.133Z,16.95
2019-02-11T23:03:39.719Z,16.87
2019-02-11T23:06:07.295Z,10.47
2019-02-11T23:08:34.912Z,12.20
2019-02-11T23:11:02.492Z,12.80
2019-02-11T23:13:30.067Z,12.70
2019-02-11T23:15:58.837Z,11.47
2019-02-11T23:18:26.427Z,14.50
2019-02-11T23:20:54.772Z,12.77
2019-02-11T23:23:22.380Z,13.17
2019-02-11T23:25:49.958Z,12.43
2019-02-11T23:28:17.540Z,14.23
2019-02-11T23:30:45.168Z,13.73
2019-02-11T23:33:12.752Z,15.53
2019-02-11T23:35:40.329Z,11.83
2019-02-11T23:38:08.019Z,12.57
2019-02-11T23:40:35.597Z,16.57
2019-02-11T23:43:03.943Z,19.70
2019-02-11T23:45:31.561Z,19.40
2019-02-11T23:47:59.139Z,22.50
2019-02-11T23:50:26.719Z,18.53
2019-02-11T23:52:54.343Z,30.00
2019-02-11T23:55:21.930Z,37.83
2019-02-11T23:57:49.533Z,32.43
